Butte Valley, California
Current Conditions -  °F | °C
As of 7:04 AM on Wednesday 26 Nov 2014 (Local Time) from KOVE Reporting Station
Haze Haze  
Wind Chill: 42°   Ceiling: Unl
Heat Index: 42°   Visibility: 1.2mi
Dew Point: 40°   Wind: 0mph
Humidity: 92%   Direction: NA
Pressure: 30.36"   Gusts: NA
Location:  39.5324°N, 121.648°W
Report Text: KOVE 261504Z AUTO 00000KT 1 1/4SM BR FEW002 06/04 A3036 RMK AO2 T00560044
Loading
Personal Weather Stations






























Interactive Weather Map New forecast layout! Learn more

10-Day Weather Forecast

Advertisements
Track Severe Weather on mobile